createdAt,value
2023-03-27T00:00:33.660Z,2.06
2023-03-27T00:01:33.653Z,1.93
2023-03-27T00:02:33.715Z,2.03
2023-03-27T00:03:33.730Z,2.06
2023-03-27T00:04:33.591Z,2.02
2023-03-27T00:05:33.583Z,1.91
2023-03-27T00:06:33.534Z,2.00
2023-03-27T00:07:33.514Z,2.05
2023-03-27T00:08:33.526Z,2.00
2023-03-27T00:09:33.487Z,1.91
2023-03-27T00:10:33.451Z,2.02
2023-03-27T00:11:33.464Z,2.05
2023-03-27T00:12:33.461Z,2.06
2023-03-27T00:13:33.409Z,1.93
2023-03-27T00:14:33.364Z,2.06
2023-03-27T00:15:33.373Z,2.06
2023-03-27T00:16:33.338Z,2.07
2023-03-27T00:17:33.325Z,2.06
2023-03-27T00:18:33.281Z,2.05
2023-03-27T00:19:33.290Z,1.93
2023-03-27T00:20:33.249Z,1.95
2023-03-27T00:21:33.222Z,1.88
2023-03-27T00:22:33.203Z,1.90
2023-03-27T00:23:33.173Z,1.93
2023-03-27T00:24:33.210Z,2.00
2023-03-27T00:25:33.147Z,1.95
2023-03-27T00:26:33.114Z,1.98
2023-03-27T00:27:33.096Z,1.95
2023-03-27T00:28:33.071Z,1.95
2023-03-27T00:29:33.061Z,1.87
2023-03-27T00:30:33.080Z,1.90
2023-03-27T00:31:33.009Z,1.86
2023-03-27T00:32:33.007Z,1.87
2023-03-27T00:33:32.968Z,1.83
2023-03-27T00:34:32.955Z,1.88
2023-03-27T00:35:32.989Z,1.91
2023-03-27T00:36:32.921Z,1.80
2023-03-27T00:37:32.878Z,1.84
2023-03-27T00:38:32.856Z,1.90
2023-03-27T00:39:32.852Z,1.79
2023-03-27T00:40:32.840Z,1.83
2023-03-27T00:41:32.801Z,1.76
2023-03-27T00:42:32.806Z,1.69
2023-03-27T00:43:32.752Z,1.68
2023-03-27T00:44:32.733Z,1.68
2023-03-27T00:45:32.728Z,1.65
2023-03-27T00:46:32.708Z,1.62
2023-03-27T00:47:32.747Z,1.60
2023-03-27T00:48:32.646Z,1.66
2023-03-27T00:49:32.635Z,1.60
2023-03-27T00:50:32.610Z,1.66
2023-03-27T00:51:32.593Z,1.65
2023-03-27T00:52:32.574Z,1.62
2023-03-27T00:53:32.575Z,1.65
2023-03-27T00:54:32.516Z,1.60
2023-03-27T00:55:32.496Z,1.59
2023-03-27T00:56:32.507Z,1.60
2023-03-27T00:57:32.468Z,1.58
2023-03-27T00:58:32.457Z,1.55
2023-03-27T00:59:32.418Z,1.66
2023-03-27T01:00:32.430Z,1.59
2023-03-27T01:01:32.424Z,1.60
2023-03-27T01:02:32.424Z,1.55
2023-03-27T01:03:32.561Z,1.59
2023-03-27T01:04:32.368Z,1.59
2023-03-27T01:05:32.283Z,1.51
2023-03-27T01:06:32.269Z,1.51
2023-03-27T01:07:32.241Z,1.58
2023-03-27T01:08:32.233Z,1.55
2023-03-27T01:09:32.196Z,1.51
2023-03-27T01:10:32.205Z,1.51
2023-03-27T01:11:32.161Z,1.54
2023-03-27T01:12:32.131Z,1.51
2023-03-27T01:13:32.113Z,1.52
2023-03-27T01:14:32.120Z,1.48
2023-03-27T01:15:32.167Z,1.60
2023-03-27T01:16:32.053Z,1.50
2023-03-27T01:17:32.084Z,1.59
2023-03-27T01:18:32.029Z,1.59
2023-03-27T01:19:32.018Z,1.58
2023-03-27T01:20:31.963Z,1.50
2023-03-27T01:21:31.937Z,1.62
2023-03-27T01:22:31.936Z,1.59
2023-03-27T01:23:58.356Z,1.69
2023-03-27T01:24:31.879Z,1.68
2023-03-27T01:25:31.849Z,1.69
2023-03-27T01:26:35.279Z,1.77
2023-03-27T01:27:31.871Z,1.69
2023-03-27T01:28:31.785Z,1.63
2023-03-27T01:29:31.764Z,1.63
2023-03-27T01:30:31.744Z,1.59
2023-03-27T01:31:31.747Z,1.62
2023-03-27T01:32:31.731Z,1.59
2023-03-27T01:33:31.682Z,1.62
2023-03-27T01:34:31.656Z,1.60
2023-03-27T01:35:31.677Z,1.52
2023-03-27T01:36:31.611Z,1.65
2023-03-27T01:37:31.592Z,1.59
2023-03-27T01:38:31.570Z,1.58
2023-03-27T01:39:31.549Z,1.62
2023-03-27T01:40:31.593Z,1.54
2023-03-27T01:41:31.506Z,1.55
2023-03-27T01:42:31.504Z,1.50
2023-03-27T01:43:31.462Z,1.52
2023-03-27T01:44:42.714Z,1.51
2023-03-27T01:45:31.430Z,1.59
2023-03-27T01:46:31.439Z,1.52
2023-03-27T01:47:31.406Z,1.58
2023-03-27T01:48:31.362Z,1.55
2023-03-27T01:49:31.343Z,1.63
2023-03-27T01:50:31.340Z,1.52
2023-03-27T01:51:31.294Z,1.48
2023-03-27T01:52:31.269Z,1.55
2023-03-27T01:53:31.251Z,1.50
2023-03-27T01:54:31.233Z,1.51
2023-03-27T01:55:31.237Z,1.55
2023-03-27T01:56:31.194Z,1.55
2023-03-27T01:57:31.165Z,1.55
2023-03-27T01:58:31.141Z,1.54
2023-03-27T01:59:31.125Z,1.51
2023-03-27T02:00:51.397Z,1.52
2023-03-27T02:01:31.146Z,1.55
2023-03-27T02:02:31.083Z,1.51
2023-03-27T02:03:31.035Z,1.51
2023-03-27T02:04:31.034Z,1.60
2023-03-27T02:05:30.998Z,1.58
2023-03-27T02:06:30.970Z,1.62
2023-03-27T02:07:30.950Z,1.60
2023-03-27T02:08:30.930Z,1.62
2023-03-27T02:09:30.907Z,1.58
2023-03-27T02:10:30.893Z,1.54
2023-03-27T02:11:30.865Z,1.62
2023-03-27T02:12:30.847Z,1.58
2023-03-27T02:13:30.820Z,1.59
2023-03-27T02:14:30.799Z,1.66
2023-03-27T02:15:30.787Z,1.65
2023-03-27T02:16:30.812Z,1.69
2023-03-27T02:17:30.789Z,1.63
2023-03-27T02:18:30.713Z,1.63
2023-03-27T02:19:30.696Z,1.66
2023-03-27T02:20:30.698Z,1.65
2023-03-27T02:21:30.676Z,1.63
2023-03-27T02:22:38.265Z,1.66
2023-03-27T02:23:30.616Z,1.63
2023-03-27T02:24:30.586Z,1.69
2023-03-27T02:25:30.567Z,1.66
2023-03-27T02:26:30.545Z,1.70
2023-03-27T02:27:30.521Z,1.62
2023-03-27T02:28:30.555Z,1.70
2023-03-27T02:29:30.489Z,1.63
2023-03-27T02:30:30.455Z,1.70
2023-03-27T02:31:32.464Z,1.79
2023-03-27T02:32:30.475Z,1.68
2023-03-27T02:33:30.431Z,1.73
2023-03-27T02:34:30.370Z,1.70
2023-03-27T02:36:00.175Z,1.81
2023-03-27T02:36:30.330Z,1.87
2023-03-27T02:37:32.441Z,1.83
2023-03-27T02:38:30.294Z,1.81
2023-03-27T02:39:30.291Z,1.87
2023-03-27T02:40:30.244Z,1.87
2023-03-27T02:41:30.230Z,1.87
2023-03-27T02:42:30.202Z,1.83
2023-03-27T02:43:30.208Z,1.84
2023-03-27T02:44:30.198Z,1.83
2023-03-27T02:45:30.175Z,1.87
2023-03-27T02:46:30.115Z,1.86
2023-03-27T02:47:30.134Z,1.86
2023-03-27T02:48:30.076Z,1.86
2023-03-27T02:49:30.098Z,1.87
2023-03-27T02:50:30.071Z,1.83
2023-03-27T02:51:30.010Z,1.84
2023-03-27T02:52:29.993Z,1.86
2023-03-27T02:53:29.971Z,1.86
2023-03-27T02:54:29.950Z,1.84
2023-03-27T02:55:29.979Z,1.90
2023-03-27T02:56:29.913Z,1.91
2023-03-27T02:57:29.889Z,1.98
2023-03-27T02:58:29.876Z,1.98
2023-03-27T02:59:29.841Z,2.00
2023-03-27T03:00:29.827Z,2.06
2023-03-27T03:01:29.843Z,1.98
2023-03-27T03:02:29.909Z,2.03
2023-03-27T03:03:29.765Z,2.00
2023-03-27T03:04:29.737Z,1.95
2023-03-27T03:05:29.721Z,1.98
2023-03-27T03:06:29.700Z,1.98
2023-03-27T03:07:29.677Z,1.95
2023-03-27T03:08:29.662Z,1.87
2023-03-27T03:09:29.632Z,1.86
2023-03-27T03:10:29.608Z,1.83
2023-03-27T03:11:29.590Z,1.90
2023-03-27T03:12:29.567Z,1.87
2023-03-27T03:13:29.545Z,1.88
2023-03-27T03:14:29.545Z,1.91
2023-03-27T03:15:29.501Z,2.00
2023-03-27T03:16:29.651Z,1.98
2023-03-27T03:17:29.577Z,2.02
2023-03-27T03:18:29.442Z,2.06
2023-03-27T03:19:29.434Z,1.95
2023-03-27T03:20:29.396Z,1.95
2023-03-27T03:21:29.375Z,1.90
2023-03-27T03:22:29.354Z,1.88
2023-03-27T03:23:29.359Z,1.76
2023-03-27T03:24:29.311Z,1.83
2023-03-27T03:25:29.287Z,1.86
2023-03-27T03:26:29.268Z,1.76
2023-03-27T03:27:29.302Z,1.79
2023-03-27T03:28:29.235Z,1.69
2023-03-27T03:29:29.206Z,1.69
2023-03-27T03:30:29.189Z,1.72
2023-03-27T03:31:29.243Z,1.77
2023-03-27T03:32:29.213Z,1.66
2023-03-27T03:33:29.121Z,1.72
2023-03-27T03:34:29.130Z,1.68
2023-03-27T03:35:29.173Z,1.73
2023-03-27T03:36:29.063Z,1.80
2023-03-27T03:37:29.043Z,1.69
2023-03-27T03:38:29.020Z,1.65
2023-03-27T03:39:29.032Z,1.65
2023-03-27T03:40:29.014Z,1.60
2023-03-27T03:41:28.958Z,1.65
2023-03-27T03:42:28.933Z,1.63
2023-03-27T03:43:28.907Z,1.63
2023-03-27T03:44:28.888Z,1.68
2023-03-27T03:45:28.864Z,1.62
2023-03-27T03:46:28.872Z,1.65
2023-03-27T03:47:28.879Z,1.63
2023-03-27T03:48:28.826Z,1.66
2023-03-27T03:49:28.786Z,1.69
2023-03-27T03:50:28.765Z,1.60
2023-03-27T03:51:28.784Z,1.62
2023-03-27T03:52:28.721Z,1.48
2023-03-27T03:53:28.724Z,1.48
2023-03-27T03:54:28.677Z,1.44
2023-03-27T03:55:28.658Z,1.41
2023-03-27T03:56:28.630Z,1.34
2023-03-27T03:57:28.605Z,1.34
2023-03-27T03:58:34.688Z,1.40
2023-03-27T03:59:28.606Z,1.34
2023-03-27T04:00:28.559Z,1.41
2023-03-27T04:01:28.558Z,1.27
2023-03-27T04:02:28.628Z,1.18
2023-03-27T04:03:28.611Z,1.22
2023-03-27T04:04:28.491Z,1.09
2023-03-27T04:05:28.439Z,1.04
2023-03-27T04:06:28.415Z,0.90
2023-03-27T04:07:28.388Z,0.91
2023-03-27T04:08:28.370Z,0.79
2023-03-27T04:09:28.373Z,0.78
2023-03-27T04:10:28.326Z,0.78
2023-03-27T04:11:28.332Z,0.62
2023-03-27T04:12:28.290Z,0.62
2023-03-27T04:13:28.267Z,0.50
2023-03-27T04:14:28.259Z,0.53
2023-03-27T04:15:28.233Z,0.62
2023-03-27T04:16:28.229Z,0.61
2023-03-27T04:17:28.257Z,0.50
2023-03-27T04:18:28.205Z,0.46
2023-03-27T04:19:28.138Z,0.46
2023-03-27T04:20:28.157Z,0.41
2023-03-27T04:21:28.092Z,0.47
2023-03-27T04:22:28.071Z,0.49
2023-03-27T04:23:28.056Z,0.46
2023-03-27T04:24:28.052Z,0.42
2023-03-27T04:25:28.020Z,0.42
2023-03-27T04:26:28.003Z,0.42
2023-03-27T04:27:27.972Z,0.49
2023-03-27T04:28:27.960Z,0.49
2023-03-27T04:29:27.950Z,0.47
2023-03-27T04:30:27.900Z,0.46
2023-03-27T04:31:27.952Z,0.49
2023-03-27T04:32:27.907Z,0.46
2023-03-27T04:33:30.604Z,0.50
2023-03-27T04:34:27.814Z,0.49
2023-03-27T04:35:27.838Z,0.49
2023-03-27T04:36:29.518Z,0.68
2023-03-27T04:37:27.762Z,0.61
2023-03-27T04:38:27.758Z,0.57
2023-03-27T04:39:27.711Z,0.62
2023-03-27T04:40:27.686Z,0.61
2023-03-27T04:41:27.667Z,0.42
2023-03-27T04:42:27.645Z,0.49
2023-03-27T04:43:27.664Z,0.42
2023-03-27T04:44:27.604Z,0.31
2023-03-27T04:45:27.582Z,0.36
2023-03-27T04:46:27.592Z,0.39
2023-03-27T04:47:27.577Z,0.33
2023-03-27T04:48:27.550Z,0.38
2023-03-27T04:49:27.501Z,0.42
2023-03-27T04:50:27.517Z,0.47
2023-03-27T04:51:27.455Z,0.47
2023-03-27T04:52:27.439Z,0.46
2023-03-27T04:53:27.411Z,0.53
2023-03-27T04:54:27.387Z,0.47
2023-03-27T04:55:27.369Z,0.65
2023-03-27T04:56:27.394Z,0.65
2023-03-27T04:57:27.332Z,0.66
2023-03-27T04:58:27.301Z,0.84
2023-03-27T04:59:27.282Z,0.73
2023-03-27T05:00:27.260Z,0.62
2023-03-27T05:01:27.295Z,0.79
2023-03-27T05:02:27.254Z,0.75
2023-03-27T05:03:27.228Z,0.78
2023-03-27T05:04:27.171Z,0.78
2023-03-27T05:05:27.162Z,0.84
2023-03-27T05:06:27.124Z,0.91
2023-03-27T05:07:27.139Z,0.87
2023-03-27T05:08:27.093Z,0.91
2023-03-27T05:09:27.066Z,0.91
2023-03-27T05:10:27.050Z,0.84
2023-03-27T05:11:27.080Z,0.88
2023-03-27T05:12:26.996Z,0.88
2023-03-27T05:13:26.983Z,0.90
2023-03-27T05:14:26.971Z,0.96
2023-03-27T05:15:26.931Z,1.02
2023-03-27T05:16:26.949Z,1.04
2023-03-27T05:17:26.904Z,1.14
2023-03-27T05:18:26.863Z,1.09
2023-03-27T05:19:26.950Z,1.08
2023-03-27T05:20:26.828Z,1.09
2023-03-27T05:21:26.819Z,1.05
2023-03-27T05:22:26.843Z,1.08
2023-03-27T05:23:26.759Z,0.96
2023-03-27T05:24:26.768Z,0.96
2023-03-27T05:25:26.727Z,1.00
2023-03-27T05:26:26.691Z,1.00
2023-03-27T05:27:26.687Z,0.97
2023-03-27T05:28:26.650Z,0.94
2023-03-27T05:29:26.636Z,0.94
2023-03-27T05:30:26.637Z,0.90
2023-03-27T05:31:26.611Z,0.86
2023-03-27T05:32:26.606Z,0.90
2023-03-27T05:33:26.552Z,0.86
2023-03-27T05:34:26.518Z,0.87
2023-03-27T05:35:26.531Z,0.79
2023-03-27T05:36:26.479Z,0.79
2023-03-27T05:37:27.491Z,0.72
2023-03-27T05:38:26.446Z,0.62
2023-03-27T05:39:26.410Z,0.62
2023-03-27T05:40:26.395Z,0.69
2023-03-27T05:41:26.374Z,0.70
2023-03-27T05:42:26.376Z,0.65
2023-03-27T05:43:26.327Z,0.70
2023-03-27T05:44:26.308Z,0.62
2023-03-27T05:45:26.300Z,0.62
2023-03-27T05:46:26.294Z,0.61
2023-03-27T05:47:26.292Z,0.66
2023-03-27T05:48:26.215Z,0.69
2023-03-27T05:49:26.199Z,0.69
2023-03-27T05:50:26.199Z,0.49
2023-03-27T05:51:26.153Z,0.55
2023-03-27T05:52:28.604Z,0.61
2023-03-27T05:53:28.071Z,0.53
2023-03-27T05:54:26.090Z,0.57
2023-03-27T05:55:27.593Z,0.50
2023-03-27T05:56:26.063Z,0.75
2023-03-27T05:57:26.061Z,0.57
2023-03-27T05:58:26.003Z,0.61
2023-03-27T05:59:25.982Z,0.69
2023-03-27T06:00:26.002Z,0.68
2023-03-27T06:01:25.939Z,0.78
2023-03-27T06:02:25.968Z,0.76
2023-03-27T06:03:26.041Z,0.80
2023-03-27T06:04:25.905Z,0.69
2023-03-27T06:05:25.854Z,0.72
2023-03-27T06:06:25.836Z,0.78
2023-03-27T06:07:25.843Z,0.86
2023-03-27T06:08:25.792Z,0.79
2023-03-27T06:09:25.766Z,0.90
2023-03-27T06:10:25.743Z,0.93
2023-03-27T06:11:25.727Z,0.97
2023-03-27T06:12:25.768Z,1.00
2023-03-27T06:13:25.683Z,0.94
2023-03-27T06:14:25.663Z,0.96
2023-03-27T06:15:25.746Z,0.98
2023-03-27T06:16:25.680Z,1.08
2023-03-27T06:17:25.673Z,1.06
2023-03-27T06:18:25.573Z,1.09
2023-03-27T06:19:25.561Z,1.08
2023-03-27T06:20:25.539Z,1.04
2023-03-27T06:21:25.535Z,1.08
2023-03-27T06:22:25.484Z,1.14
2023-03-27T06:23:25.492Z,1.02
2023-03-27T06:24:25.446Z,1.02
2023-03-27T06:25:25.451Z,1.09
2023-03-27T06:26:25.400Z,1.08
2023-03-27T06:27:25.386Z,1.11
2023-03-27T06:28:25.371Z,1.05
2023-03-27T06:29:25.393Z,1.08
2023-03-27T06:30:25.328Z,1.11
2023-03-27T06:31:25.345Z,1.16
2023-03-27T06:32:27.531Z,1.20
2023-03-27T06:33:25.254Z,1.16
2023-03-27T06:34:25.228Z,1.22
2023-03-27T06:35:25.245Z,1.27
2023-03-27T06:36:25.313Z,1.33
2023-03-27T06:37:25.193Z,1.37
2023-03-27T06:38:25.146Z,1.40
2023-03-27T06:39:25.122Z,1.41
2023-03-27T06:40:25.098Z,1.45
2023-03-27T06:41:25.083Z,1.42
2023-03-27T06:42:25.086Z,1.42
2023-03-27T06:43:25.081Z,1.42
2023-03-27T06:44:25.180Z,1.44
2023-03-27T06:45:24.999Z,1.42
2023-03-27T06:46:29.725Z,1.42
2023-03-27T06:47:25.139Z,1.44
2023-03-27T06:48:24.954Z,1.45
2023-03-27T06:49:24.913Z,1.45
2023-03-27T06:50:24.891Z,1.44
2023-03-27T06:51:24.872Z,1.42
2023-03-27T06:52:24.875Z,1.44
2023-03-27T06:53:28.033Z,1.44
2023-03-27T06:54:24.802Z,1.50
2023-03-27T06:55:24.782Z,1.52
2023-03-27T06:56:24.758Z,1.50
2023-03-27T06:57:24.747Z,1.54
2023-03-27T06:58:24.728Z,1.55
2023-03-27T06:59:24.699Z,1.63
2023-03-27T07:00:24.689Z,1.63
2023-03-27T07:01:24.694Z,1.68
2023-03-27T07:02:24.676Z,1.79
2023-03-27T07:03:24.615Z,1.76
2023-03-27T07:04:24.586Z,1.83
2023-03-27T07:05:24.586Z,1.88
2023-03-27T07:06:24.541Z,1.83
2023-03-27T07:07:24.520Z,1.88
2023-03-27T07:08:25.456Z,1.99
2023-03-27T07:09:24.507Z,1.93
2023-03-27T07:10:24.454Z,2.03
2023-03-27T07:11:24.438Z,2.10
2023-03-27T07:12:24.410Z,2.14
2023-03-27T07:13:24.470Z,2.17
2023-03-27T07:14:24.376Z,2.14
2023-03-27T07:15:24.348Z,2.23
2023-03-27T07:16:24.365Z,2.27
2023-03-27T07:17:26.461Z,2.21
2023-03-27T07:18:24.317Z,2.28
2023-03-27T07:19:24.273Z,2.30
2023-03-27T07:20:24.239Z,2.39
2023-03-27T07:21:24.222Z,2.39
2023-03-27T07:22:24.266Z,2.48
2023-03-27T07:23:24.179Z,2.52
2023-03-27T07:24:24.184Z,2.45
2023-03-27T07:25:24.134Z,2.52
2023-03-27T07:26:24.136Z,2.45
2023-03-27T07:27:24.138Z,2.53
2023-03-27T07:28:24.072Z,2.57
2023-03-27T07:29:24.049Z,2.61
2023-03-27T07:30:24.031Z,2.72
2023-03-27T07:31:35.152Z,2.71
2023-03-27T07:32:36.114Z,2.63
2023-03-27T07:33:24.192Z,2.63
2023-03-27T07:34:23.960Z,2.69
2023-03-27T07:35:23.940Z,2.69
2023-03-27T07:36:23.900Z,2.79
2023-03-27T07:37:23.946Z,2.92
2023-03-27T07:38:23.859Z,2.96
2023-03-27T07:39:23.850Z,3.02
2023-03-27T07:40:33.087Z,3.06
2023-03-27T07:41:23.828Z,2.96
2023-03-27T07:42:23.776Z,3.03
2023-03-27T07:43:23.765Z,3.05
2023-03-27T07:44:23.740Z,3.15
2023-03-27T07:45:23.794Z,3.21
2023-03-27T07:46:23.742Z,3.17
2023-03-27T07:47:23.711Z,3.26
2023-03-27T07:48:23.664Z,3.24
2023-03-27T07:49:30.035Z,3.29
2023-03-27T07:50:23.633Z,3.29
2023-03-27T07:51:23.606Z,3.28
2023-03-27T07:52:23.591Z,3.32
2023-03-27T07:53:34.241Z,3.36
2023-03-27T07:54:23.534Z,3.42
2023-03-27T07:55:23.512Z,3.43
2023-03-27T07:56:23.618Z,3.58
2023-03-27T07:57:23.552Z,3.68
2023-03-27T07:58:23.561Z,3.62
2023-03-27T07:59:23.484Z,3.65
2023-03-27T08:00:23.426Z,3.84
2023-03-27T08:01:23.392Z,3.86
2023-03-27T08:02:23.388Z,4.09
2023-03-27T08:03:23.492Z,4.08
2023-03-27T08:04:23.464Z,4.26
2023-03-27T08:05:23.340Z,4.20
2023-03-27T08:06:23.297Z,4.00
2023-03-27T08:07:24.234Z,3.83
2023-03-27T08:08:23.256Z,3.80
2023-03-27T08:09:23.238Z,3.76
2023-03-27T08:10:23.297Z,3.72
2023-03-27T08:11:30.726Z,3.70
2023-03-27T08:12:23.191Z,3.61
2023-03-27T08:13:23.160Z,3.68
2023-03-27T08:14:23.138Z,3.50
2023-03-27T08:15:23.117Z,3.42
2023-03-27T08:16:23.122Z,3.40
2023-03-27T08:17:23.366Z,3.35
2023-03-27T08:18:23.161Z,3.24
2023-03-27T08:19:23.042Z,3.33
2023-03-27T08:20:23.030Z,3.28
2023-03-27T08:21:22.999Z,3.17
2023-03-27T08:22:22.984Z,3.13
2023-03-27T08:23:22.964Z,3.10
2023-03-27T08:24:22.945Z,2.96
2023-03-27T08:25:23.077Z,2.95
2023-03-27T08:26:22.898Z,2.78
2023-03-27T08:27:22.932Z,2.81
2023-03-27T08:28:22.856Z,2.81
2023-03-27T08:29:22.837Z,2.92
2023-03-27T08:30:22.819Z,2.77
2023-03-27T08:31:22.850Z,3.02
2023-03-27T08:32:22.819Z,3.03
2023-03-27T08:33:22.770Z,3.10
2023-03-27T08:34:22.741Z,3.21
2023-03-27T08:35:22.752Z,3.29
2023-03-27T08:36:22.722Z,3.24
2023-03-27T08:37:22.726Z,3.33
2023-03-27T08:38:26.925Z,3.33
2023-03-27T08:39:22.666Z,3.45
2023-03-27T08:40:22.643Z,3.52
2023-03-27T08:41:22.589Z,3.48
2023-03-27T08:42:22.610Z,3.66
2023-03-27T08:43:22.552Z,3.65
2023-03-27T08:44:22.583Z,3.55
2023-03-27T08:45:22.521Z,3.58
2023-03-27T08:46:22.566Z,3.66
2023-03-27T08:47:22.503Z,3.62
2023-03-27T08:48:22.450Z,3.72
2023-03-27T08:49:22.478Z,3.88
2023-03-27T08:50:22.420Z,3.94
2023-03-27T08:51:22.414Z,4.02
2023-03-27T08:52:22.419Z,4.11
2023-03-27T08:53:22.358Z,4.30
2023-03-27T08:54:22.376Z,4.29
2023-03-27T08:55:22.316Z,4.11
2023-03-27T08:56:22.295Z,4.00
2023-03-27T08:57:22.315Z,4.08
2023-03-27T08:58:22.270Z,4.29
2023-03-27T08:59:22.292Z,4.36
2023-03-27T09:00:22.214Z,4.32
2023-03-27T09:01:22.288Z,4.48
2023-03-27T09:02:22.355Z,4.51
2023-03-27T09:03:22.358Z,4.41
2023-03-27T09:04:22.137Z,4.54
2023-03-27T09:05:22.126Z,4.73
2023-03-27T09:06:22.094Z,4.67
2023-03-27T09:07:22.083Z,4.78
2023-03-27T09:08:22.064Z,4.82
2023-03-27T09:09:22.202Z,4.78
2023-03-27T09:10:22.045Z,4.85
2023-03-27T09:11:21.995Z,4.94
2023-03-27T09:12:21.998Z,4.96
2023-03-27T09:13:21.968Z,4.97
2023-03-27T09:14:22.746Z,5.00
2023-03-27T09:15:21.950Z,4.96
2023-03-27T09:16:22.083Z,5.13
2023-03-27T09:17:21.908Z,5.12
2023-03-27T09:18:21.881Z,5.20
2023-03-27T09:19:21.851Z,5.15
2023-03-27T09:20:21.862Z,5.24
2023-03-27T09:21:21.878Z,5.15
2023-03-27T09:22:21.799Z,5.12
2023-03-27T09:23:21.779Z,5.17
2023-03-27T09:24:21.772Z,5.13
2023-03-27T09:25:21.792Z,5.13
2023-03-27T09:26:21.745Z,5.13
2023-03-27T09:27:21.707Z,5.27
2023-03-27T09:28:21.693Z,5.35
2023-03-27T09:29:21.673Z,5.36
2023-03-27T09:30:21.688Z,5.54
2023-03-27T09:31:21.736Z,5.42
2023-03-27T09:32:21.622Z,5.48
2023-03-27T09:33:21.651Z,5.38
2023-03-27T09:34:21.588Z,5.45
2023-03-27T09:35:21.619Z,5.42
2023-03-27T09:36:21.552Z,5.35
2023-03-27T09:37:21.532Z,5.30
2023-03-27T09:38:21.548Z,5.42
2023-03-27T09:39:21.501Z,5.53
2023-03-27T09:40:21.491Z,5.54
2023-03-27T09:41:21.612Z,5.57
2023-03-27T09:42:21.507Z,5.36
2023-03-27T09:43:24.279Z,5.15
2023-03-27T09:44:21.412Z,5.07
2023-03-27T09:45:21.415Z,4.97
2023-03-27T09:46:21.434Z,5.13
2023-03-27T09:47:21.364Z,5.12
2023-03-27T09:48:21.380Z,5.12
2023-03-27T09:49:21.339Z,5.13
2023-03-27T09:50:21.311Z,5.07
2023-03-27T09:51:21.299Z,5.12
2023-03-27T09:52:21.270Z,5.13
2023-03-27T09:53:21.251Z,5.15
2023-03-27T09:54:21.263Z,5.12
2023-03-27T09:55:21.217Z,5.24
2023-03-27T09:56:21.203Z,5.35
2023-03-27T09:57:21.263Z,5.35
2023-03-27T09:58:21.219Z,5.45
2023-03-27T09:59:21.141Z,5.51
2023-03-27T10:00:21.124Z,5.43
2023-03-27T10:01:21.154Z,5.40
2023-03-27T10:02:21.104Z,5.65
2023-03-27T10:03:21.127Z,5.82
2023-03-27T10:04:21.097Z,5.71
2023-03-27T10:05:21.054Z,5.85
2023-03-27T10:06:21.017Z,5.82
2023-03-27T10:07:21.001Z,5.82
2023-03-27T10:08:21.041Z,5.75
2023-03-27T10:09:20.960Z,5.64
2023-03-27T10:10:21.001Z,5.63
2023-03-27T10:11:20.943Z,5.71
2023-03-27T10:12:20.945Z,5.74
2023-03-27T10:13:20.900Z,5.81
2023-03-27T10:14:20.901Z,5.82
2023-03-27T10:15:21.176Z,6.04
2023-03-27T10:16:20.896Z,6.31
2023-03-27T10:17:20.817Z,6.38
2023-03-27T10:18:20.817Z,6.40
2023-03-27T10:19:20.833Z,6.48
2023-03-27T10:20:20.763Z,6.28
2023-03-27T10:21:20.760Z,6.41
2023-03-27T10:22:20.732Z,6.61
2023-03-27T10:23:20.747Z,6.70
2023-03-27T10:24:20.698Z,6.73
2023-03-27T10:25:20.758Z,6.76
2023-03-27T10:26:20.668Z,6.56
2023-03-27T10:27:20.646Z,6.64
2023-03-27T10:28:20.644Z,6.43
2023-03-27T10:29:20.637Z,6.46
2023-03-27T10:30:20.600Z,6.38
2023-03-27T10:31:20.639Z,6.37
2023-03-27T10:32:20.567Z,6.30
2023-03-27T10:33:20.552Z,6.09
2023-03-27T10:34:20.529Z,5.83
2023-03-27T10:35:20.530Z,5.81
2023-03-27T10:36:20.491Z,5.85
2023-03-27T10:37:20.519Z,5.75
2023-03-27T10:38:20.457Z,5.71
2023-03-27T10:39:20.444Z,5.67
2023-03-27T10:40:20.430Z,5.78
2023-03-27T10:41:28.161Z,5.61
2023-03-27T10:42:20.395Z,5.61
2023-03-27T10:43:20.416Z,5.56
2023-03-27T10:44:20.368Z,5.43
2023-03-27T10:45:20.333Z,5.28
2023-03-27T10:46:20.374Z,5.10
2023-03-27T10:47:20.326Z,4.67
2023-03-27T10:48:20.277Z,4.16
2023-03-27T10:49:20.286Z,3.78
2023-03-27T10:50:20.276Z,3.52
2023-03-27T10:51:20.222Z,3.18
2023-03-27T10:52:20.203Z,2.92
2023-03-27T10:53:20.352Z,2.75
2023-03-27T10:54:20.238Z,2.84
2023-03-27T10:55:20.152Z,2.85
2023-03-27T10:56:20.126Z,2.79
2023-03-27T10:57:20.190Z,2.93
2023-03-27T10:58:20.106Z,2.87
2023-03-27T10:59:31.049Z,3.05
2023-03-27T11:00:20.136Z,3.15
2023-03-27T11:01:20.095Z,3.18
2023-03-27T11:02:20.024Z,3.42
2023-03-27T11:03:19.994Z,3.48
2023-03-27T11:04:19.998Z,3.66
2023-03-27T11:05:19.976Z,3.90
2023-03-27T11:06:19.930Z,4.11
2023-03-27T11:07:19.917Z,4.36
2023-03-27T11:08:19.913Z,4.67
2023-03-27T11:09:19.912Z,5.09
2023-03-27T11:10:20.047Z,5.30
2023-03-27T11:11:19.833Z,5.43
2023-03-27T11:12:19.816Z,5.53
2023-03-27T11:13:19.837Z,5.35
2023-03-27T11:14:19.784Z,5.22
2023-03-27T11:15:19.787Z,5.09
2023-03-27T11:16:19.793Z,4.94
2023-03-27T11:17:19.729Z,4.82
2023-03-27T11:18:19.723Z,4.72
2023-03-27T11:19:19.692Z,4.51
2023-03-27T11:20:19.979Z,4.66
2023-03-27T11:21:19.719Z,4.97
2023-03-27T11:22:19.642Z,5.09
2023-03-27T11:23:19.623Z,5.17
2023-03-27T11:24:19.614Z,5.28
2023-03-27T11:25:19.593Z,5.17
2023-03-27T11:26:19.579Z,5.31
2023-03-27T11:27:19.562Z,5.33
2023-03-27T11:28:19.553Z,5.46
2023-03-27T11:29:19.520Z,5.35
2023-03-27T11:30:19.507Z,5.27
2023-03-27T11:31:19.543Z,5.15
2023-03-27T11:32:19.538Z,5.10
2023-03-27T11:33:19.487Z,5.15
2023-03-27T11:34:28.942Z,5.18
2023-03-27T11:35:19.422Z,5.15
2023-03-27T11:36:19.438Z,5.02
2023-03-27T11:37:19.386Z,5.04
2023-03-27T11:38:19.370Z,5.02
2023-03-27T11:39:19.348Z,5.15
2023-03-27T11:40:19.333Z,5.12
2023-03-27T11:41:19.313Z,5.12
2023-03-27T11:42:19.312Z,5.15
2023-03-27T11:43:19.307Z,5.18
2023-03-27T11:44:19.264Z,5.25
2023-03-27T11:45:19.245Z,5.42
2023-03-27T11:46:19.234Z,5.49
2023-03-27T11:47:19.244Z,5.60
2023-03-27T11:48:19.239Z,5.78
2023-03-27T11:49:19.169Z,6.03
2023-03-27T11:50:19.157Z,6.37
2023-03-27T11:51:19.137Z,6.54
2023-03-27T11:52:19.119Z,6.66
2023-03-27T11:53:19.107Z,6.66
2023-03-27T11:54:19.080Z,6.71
2023-03-27T11:55:19.131Z,6.98
2023-03-27T11:56:19.048Z,6.91
2023-03-27T11:57:19.110Z,7.15
2023-03-27T11:58:19.018Z,7.06
2023-03-27T11:59:18.997Z,6.94
2023-03-27T12:00:18.992Z,6.95
2023-03-27T12:01:18.991Z,6.95
2023-03-27T12:02:19.032Z,7.06
2023-03-27T12:03:19.079Z,7.15
2023-03-27T12:04:18.972Z,7.32
2023-03-27T12:05:18.900Z,7.64
2023-03-27T12:06:18.908Z,7.71
2023-03-27T12:07:30.059Z,7.68
2023-03-27T12:08:19.819Z,7.28
2023-03-27T12:09:18.844Z,7.02
2023-03-27T12:10:18.881Z,6.84
2023-03-27T12:11:18.805Z,6.69
2023-03-27T12:12:18.936Z,6.48
2023-03-27T12:13:18.886Z,6.30
2023-03-27T12:14:19.231Z,6.06
2023-03-27T12:15:18.907Z,5.94
2023-03-27T12:16:18.758Z,5.83
2023-03-27T12:17:18.717Z,5.83
2023-03-27T12:18:18.679Z,5.64
2023-03-27T12:19:28.406Z,5.27
2023-03-27T12:20:18.656Z,5.09
2023-03-27T12:21:18.665Z,5.00
2023-03-27T12:22:23.897Z,4.84
2023-03-27T12:23:18.590Z,4.69
2023-03-27T12:24:18.602Z,4.59
2023-03-27T12:25:18.656Z,4.58
2023-03-27T12:26:18.589Z,4.55
2023-03-27T12:27:18.528Z,4.73
2023-03-27T12:28:22.378Z,4.99
2023-03-27T12:29:23.068Z,5.18
2023-03-27T12:30:18.460Z,5.35
2023-03-27T12:31:18.513Z,5.57
2023-03-27T12:32:18.453Z,5.79
2023-03-27T12:33:18.470Z,6.18
2023-03-27T12:34:18.418Z,6.51
2023-03-27T12:35:21.437Z,6.66
2023-03-27T12:36:18.470Z,6.77
2023-03-27T12:37:18.343Z,6.71
2023-03-27T12:38:18.316Z,6.30
2023-03-27T12:39:18.386Z,6.04
2023-03-27T12:40:18.283Z,5.96
2023-03-27T12:41:18.307Z,5.72
2023-03-27T12:42:18.257Z,5.58
2023-03-27T12:43:18.227Z,5.57
2023-03-27T12:44:18.208Z,5.57
2023-03-27T12:45:18.346Z,5.75
2023-03-27T12:46:18.280Z,5.75
2023-03-27T12:47:18.151Z,5.61
2023-03-27T12:48:18.168Z,5.71
2023-03-27T12:49:18.121Z,5.71
2023-03-27T12:50:18.101Z,5.91
2023-03-27T12:51:18.110Z,6.22
2023-03-27T12:52:18.070Z,6.44
2023-03-27T12:53:18.047Z,6.58
2023-03-27T12:54:18.025Z,6.77
2023-03-27T12:55:18.014Z,6.94
2023-03-27T12:56:17.997Z,7.20
2023-03-27T12:57:18.076Z,7.02
2023-03-27T12:58:18.064Z,7.07
2023-03-27T12:59:17.948Z,7.09
2023-03-27T13:00:17.928Z,7.05
2023-03-27T13:01:17.990Z,6.95
2023-03-27T13:02:17.957Z,7.09
2023-03-27T13:03:17.960Z,7.05
2023-03-27T13:04:17.880Z,7.03
2023-03-27T13:05:26.944Z,6.95
2023-03-27T13:06:17.824Z,7.09
2023-03-27T13:07:17.837Z,7.20
2023-03-27T13:08:17.836Z,7.21
2023-03-27T13:09:17.782Z,7.43
2023-03-27T13:10:17.760Z,7.43
2023-03-27T13:11:17.743Z,7.57
2023-03-27T13:12:17.764Z,7.72
2023-03-27T13:13:17.712Z,7.60
2023-03-27T13:14:17.697Z,7.28
2023-03-27T13:15:17.710Z,7.10
2023-03-27T13:16:17.734Z,7.27
2023-03-27T13:17:17.723Z,7.16
2023-03-27T13:18:17.629Z,6.80